createdAt,value
2016-05-15T00:00:02.606Z,0
2016-05-15T00:01:02.655Z,0
2016-05-15T00:02:02.690Z,0
2016-05-15T00:03:02.785Z,0
2016-05-15T00:04:03.399Z,0
2016-05-15T00:05:02.667Z,0
2016-05-15T00:06:02.841Z,0
2016-05-15T00:07:02.891Z,0
2016-05-15T00:08:02.752Z,0
2016-05-15T00:09:03.020Z,0
2016-05-15T00:10:03.023Z,0
2016-05-15T00:11:03.011Z,0
2016-05-15T00:12:03.060Z,0
2016-05-15T00:13:03.126Z,0
2016-05-15T00:14:03.112Z,0
2016-05-15T00:15:02.865Z,0
2016-05-15T00:16:03.212Z,0
2016-05-15T00:17:03.261Z,0
2016-05-15T00:18:03.029Z,0
2016-05-15T00:19:03.751Z,0
2016-05-15T00:20:03.347Z,0
2016-05-15T00:21:03.428Z,0
2016-05-15T00:22:03.275Z,0
2016-05-15T00:23:03.277Z,0
2016-05-15T00:24:03.531Z,0
2016-05-15T00:25:03.548Z,0
2016-05-15T00:26:03.395Z,0
2016-05-15T00:27:03.428Z,0
2016-05-15T00:28:03.728Z,0
2016-05-15T00:29:03.652Z,0
2016-05-15T00:30:03.733Z,0
2016-05-15T00:31:03.752Z,0
2016-05-15T00:32:03.646Z,0
2016-05-15T00:33:03.680Z,0
2016-05-15T00:34:04.276Z,0
2016-05-15T00:35:03.732Z,0
2016-05-15T00:36:03.781Z,0
2016-05-15T00:37:03.643Z,0
2016-05-15T00:38:03.833Z,0
2016-05-15T00:39:04.054Z,0
2016-05-15T00:40:03.948Z,0
2016-05-15T00:41:04.091Z,0
2016-05-15T00:42:04.109Z,0
2016-05-15T00:43:04.206Z,0
2016-05-15T00:44:04.193Z,0
2016-05-15T00:45:04.259Z,0
2016-05-15T00:46:04.308Z,0
2016-05-15T00:47:04.357Z,0
2016-05-15T00:48:04.204Z,0
2016-05-15T00:49:04.894Z,0
2016-05-15T00:50:04.288Z,0
2016-05-15T00:51:04.478Z,0
2016-05-15T00:52:04.371Z,0
2016-05-15T00:53:04.514Z,0
2016-05-15T00:54:04.580Z,0
2016-05-15T00:55:04.628Z,0
2016-05-15T00:56:04.335Z,0
2016-05-15T00:57:04.697Z,0
2016-05-15T00:58:04.872Z,0
2016-05-15T00:59:04.436Z,0
2016-05-15T01:00:04.611Z,0
2016-05-15T01:01:04.833Z,0
2016-05-15T01:02:04.851Z,0
2016-05-15T01:03:46.107Z,0
2016-05-15T01:04:05.622Z,0
2016-05-15T01:05:05.016Z,0
2016-05-15T01:06:04.846Z,0
2016-05-15T01:07:05.068Z,0
2016-05-15T01:08:05.102Z,0
2016-05-15T01:09:04.963Z,0
2016-05-15T01:10:05.138Z,0
2016-05-15T01:11:05.063Z,0
2016-05-15T01:12:05.129Z,0
2016-05-15T01:13:05.302Z,0
2016-05-15T01:14:05.274Z,0
2016-05-15T01:15:05.151Z,0
2016-05-15T01:16:05.404Z,0
2016-05-15T01:17:05.423Z,0
2016-05-15T01:18:05.269Z,0
2016-05-15T01:19:05.193Z,0
2016-05-15T01:20:05.384Z,0
2016-05-15T01:21:05.417Z,0
2016-05-15T01:22:05.593Z,0
2016-05-15T01:23:05.454Z,0
2016-05-15T01:24:05.723Z,0
2016-05-15T01:25:05.663Z,0
2016-05-15T01:26:05.728Z,0
2016-05-15T01:27:05.825Z,0
2016-05-15T01:28:05.686Z,0
2016-05-15T01:29:05.830Z,0
2016-05-15T01:30:05.864Z,0
2016-05-15T01:31:05.929Z,0
2016-05-15T01:32:05.760Z,0
2016-05-15T01:33:05.950Z,0
2016-05-15T01:34:06.688Z,0
2016-05-15T01:35:06.174Z,0
2016-05-15T01:36:05.786Z,0
2016-05-15T01:37:05.992Z,0
2016-05-15T01:38:06.151Z,0
2016-05-15T01:39:06.201Z,0
2016-05-15T01:40:06.219Z,0
2016-05-15T01:41:06.268Z,0
2016-05-15T01:42:06.130Z,0
2016-05-15T01:43:06.164Z,0
2016-05-15T01:44:06.339Z,0
2016-05-15T01:45:06.404Z,0
2016-05-15T01:46:06.453Z,0
2016-05-15T01:47:06.581Z,0
2016-05-15T01:48:06.365Z,0
2016-05-15T01:49:07.259Z,0
2016-05-15T01:50:06.652Z,0
2016-05-15T01:51:06.514Z,0
2016-05-15T01:52:06.642Z,0
2016-05-15T01:53:06.722Z,0
2016-05-15T01:54:06.632Z,0
2016-05-15T01:55:06.728Z,0
2016-05-15T01:56:06.793Z,0
2016-05-15T01:57:06.655Z,0
2016-05-15T01:58:06.689Z,0
2016-05-15T01:59:06.676Z,0
2016-05-15T02:00:06.975Z,0
2016-05-15T02:01:06.978Z,0
2016-05-15T02:02:07.028Z,0
2016-05-15T02:03:06.750Z,0
2016-05-15T02:04:06.986Z,0
2016-05-15T02:05:07.161Z,0
2016-05-15T02:06:07.116Z,0
2016-05-15T02:07:06.994Z,0
2016-05-15T02:08:07.060Z,0
2016-05-15T02:09:07.296Z,0
2016-05-15T02:10:07.128Z,0
2016-05-15T02:11:07.333Z,0
2016-05-15T02:12:07.649Z,0
2016-05-15T02:13:07.417Z,0
2016-05-15T02:14:07.405Z,0
2016-05-15T02:15:07.298Z,0
2016-05-15T02:16:07.581Z,0
2016-05-15T02:17:07.382Z,0
2016-05-15T02:18:07.556Z,0
2016-05-15T02:19:07.698Z,0
2016-05-15T02:20:07.702Z,0
2016-05-15T02:21:07.642Z,0
2016-05-15T02:22:07.692Z,0
2016-05-15T02:23:07.787Z,0
2016-05-15T02:24:07.790Z,0
2016-05-15T02:25:07.793Z,0
2016-05-15T02:26:07.670Z,0
2016-05-15T02:27:07.751Z,0
2016-05-15T02:28:07.895Z,0
2016-05-15T02:29:07.820Z,0
2016-05-15T02:30:08.041Z,0
2016-05-15T02:31:07.700Z,0
2016-05-15T02:32:07.936Z,0
2016-05-15T02:33:07.925Z,0
2016-05-15T02:34:08.161Z,0
2016-05-15T02:35:08.179Z,0
2016-05-15T02:36:08.010Z,0
2016-05-15T02:37:08.216Z,0
2016-05-15T02:38:08.156Z,0
2016-05-15T02:39:08.268Z,0
2016-05-15T02:40:08.318Z,0
2016-05-15T02:41:08.383Z,0
2016-05-15T02:42:08.432Z,0
2016-05-15T02:43:08.419Z,0
2016-05-15T02:44:08.454Z,0
2016-05-15T02:45:08.410Z,0
2016-05-15T02:46:08.396Z,0
2016-05-15T02:47:08.571Z,0
2016-05-15T02:48:08.589Z,0
2016-05-15T02:49:08.685Z,0
2016-05-15T02:50:08.563Z,0
2016-05-15T02:51:08.706Z,0
2016-05-15T02:52:08.741Z,0
2016-05-15T02:53:08.837Z,0
2016-05-15T02:54:08.792Z,0
2016-05-15T02:55:08.873Z,0
2016-05-15T02:56:08.611Z,0
2016-05-15T02:57:08.911Z,0
2016-05-15T02:58:08.772Z,0
2016-05-15T02:59:08.823Z,0
2016-05-15T03:00:09.075Z,0
2016-05-15T03:01:09.046Z,0
2016-05-15T03:02:08.752Z,0
2016-05-15T03:03:09.177Z,0
2016-05-15T03:04:09.804Z,0
2016-05-15T03:05:09.197Z,0
2016-05-15T03:06:09.263Z,0
2016-05-15T03:07:09.141Z,0
2016-05-15T03:08:09.315Z,0
2016-05-15T03:09:09.177Z,0
2016-05-15T03:10:09.383Z,5
2016-05-15T03:11:09.244Z,5
2016-05-15T03:12:09.435Z,5
2016-05-15T03:13:09.469Z,5
2016-05-15T03:14:09.378Z,5
2016-05-15T03:15:09.459Z,5
2016-05-15T03:16:09.587Z,5
2016-05-15T03:17:09.636Z,5
2016-05-15T03:18:09.529Z,5
2016-05-15T03:19:09.907Z,10
2016-05-15T03:20:09.534Z,10
2016-05-15T03:21:09.601Z,10
2016-05-15T03:22:09.603Z,10
2016-05-15T03:23:09.526Z,10
2016-05-15T03:24:09.874Z,10
2016-05-15T03:25:09.736Z,15
2016-05-15T03:26:09.628Z,15
2016-05-15T03:27:09.648Z,15
2016-05-15T03:28:09.697Z,15
2016-05-15T03:29:10.028Z,15
2016-05-15T03:30:10.061Z,15
2016-05-15T03:31:10.095Z,20
2016-05-15T03:32:09.989Z,20
2016-05-15T03:33:09.835Z,20
2016-05-15T03:34:10.791Z,20
2016-05-15T03:35:10.075Z,25
2016-05-15T03:36:10.328Z,25
2016-05-15T03:37:10.346Z,25
2016-05-15T03:38:10.364Z,25
2016-05-15T03:39:10.414Z,30
2016-05-15T03:40:10.416Z,30
2016-05-15T03:41:10.450Z,30
2016-05-15T03:42:10.313Z,30
2016-05-15T03:43:10.566Z,30
2016-05-15T03:44:10.224Z,30
2016-05-15T03:45:10.460Z,30
2016-05-15T03:46:10.621Z,30
2016-05-15T03:47:10.670Z,30
2016-05-15T03:48:10.531Z,30
2016-05-15T03:49:10.566Z,35
2016-05-15T03:50:10.616Z,35
2016-05-15T03:51:10.852Z,35
2016-05-15T03:52:10.808Z,35
2016-05-15T03:53:10.858Z,30
2016-05-15T03:54:10.923Z,30
2016-05-15T03:55:10.956Z,30
2016-05-15T03:56:10.960Z,30
2016-05-15T03:57:10.853Z,30
2016-05-15T03:58:10.950Z,30
2016-05-15T03:59:10.936Z,25
2016-05-15T04:00:11.095Z,25
2016-05-15T04:01:10.973Z,30
2016-05-15T04:02:11.085Z,30
2016-05-15T04:03:10.947Z,35
2016-05-15T04:04:11.262Z,35
2016-05-15T04:05:11.156Z,35
2016-05-15T04:06:11.361Z,35
2016-05-15T04:07:11.114Z,35
2016-05-15T04:08:11.414Z,35
2016-05-15T04:09:11.510Z,35
2016-05-15T04:10:11.341Z,40
2016-05-15T04:11:11.500Z,40
2016-05-15T04:12:11.566Z,40
2016-05-15T04:13:11.286Z,40
2016-05-15T04:14:11.460Z,45
2016-05-15T04:15:11.636Z,45
2016-05-15T04:16:11.513Z,50
2016-05-15T04:17:11.562Z,55
2016-05-15T04:18:11.566Z,55
2016-05-15T04:19:11.818Z,55
2016-05-15T04:20:11.837Z,50
2016-05-15T04:21:11.730Z,50
2016-05-15T04:22:11.577Z,55
2016-05-15T04:23:11.985Z,50
2016-05-15T04:24:11.956Z,50
2016-05-15T04:25:11.991Z,45
2016-05-15T04:26:12.040Z,35
2016-05-15T04:27:12.090Z,30
2016-05-15T04:28:12.108Z,30
2016-05-15T04:29:12.126Z,30
2016-05-15T04:30:12.176Z,35
2016-05-15T04:31:12.069Z,35
2016-05-15T04:32:12.228Z,35
2016-05-15T04:33:12.262Z,40
2016-05-15T04:34:12.656Z,40
2016-05-15T04:35:12.174Z,35
2016-05-15T04:36:12.364Z,35
2016-05-15T04:37:12.226Z,35
2016-05-15T04:38:12.322Z,30
2016-05-15T04:39:12.481Z,30
2016-05-15T04:40:12.531Z,25
2016-05-15T04:41:12.408Z,30
2016-05-15T04:42:12.458Z,35
2016-05-15T04:43:12.617Z,40
2016-05-15T04:44:12.635Z,45
2016-05-15T04:45:12.591Z,45
2016-05-15T04:46:12.562Z,50
2016-05-15T04:47:12.613Z,50
2016-05-15T04:48:12.615Z,50
2016-05-15T04:49:12.899Z,50
2016-05-15T04:50:12.855Z,45
2016-05-15T04:51:12.904Z,40
2016-05-15T04:52:12.970Z,45
2016-05-15T04:53:13.004Z,50
2016-05-15T04:54:12.850Z,50
2016-05-15T04:55:12.884Z,50
2016-05-15T04:56:12.918Z,60
2016-05-15T04:57:13.140Z,70
2016-05-15T04:58:13.126Z,80
2016-05-15T04:59:12.910Z,80
2016-05-15T05:00:13.037Z,70
2016-05-15T05:01:13.259Z,70
2016-05-15T05:02:13.012Z,75
2016-05-15T05:03:13.139Z,85
2016-05-15T05:04:13.940Z,90
2016-05-15T05:05:13.395Z,95
2016-05-15T05:06:13.413Z,110
2016-05-15T05:07:13.339Z,110
2016-05-15T05:08:13.356Z,100
2016-05-15T05:09:13.405Z,95
2016-05-15T05:10:13.409Z,100
2016-05-15T05:11:13.333Z,85
2016-05-15T05:12:13.649Z,85
2016-05-15T05:13:13.494Z,75
2016-05-15T05:14:13.716Z,70
2016-05-15T05:15:13.750Z,65
2016-05-15T05:16:13.799Z,65
2016-05-15T05:17:13.333Z,70
2016-05-15T05:18:13.852Z,75
2016-05-15T05:19:13.746Z,70
2016-05-15T05:20:13.763Z,70
2016-05-15T05:21:13.969Z,75
2016-05-15T05:22:13.988Z,80
2016-05-15T05:23:14.053Z,90
2016-05-15T05:24:14.056Z,100
2016-05-15T05:25:13.948Z,105
2016-05-15T05:26:13.999Z,100
2016-05-15T05:27:14.095Z,95
2016-05-15T05:28:14.206Z,90
2016-05-15T05:29:14.273Z,75
2016-05-15T05:30:14.290Z,70
2016-05-15T05:31:14.183Z,70
2016-05-15T05:32:14.186Z,75
2016-05-15T05:33:14.393Z,75
2016-05-15T05:34:14.911Z,70
2016-05-15T05:35:14.303Z,70
2016-05-15T05:36:14.510Z,70
2016-05-15T05:37:14.387Z,70
2016-05-15T05:38:14.389Z,70
2016-05-15T05:39:14.580Z,80
2016-05-15T05:40:14.630Z,85
2016-05-15T05:41:14.555Z,70
2016-05-15T05:42:14.697Z,70
2016-05-15T05:43:14.716Z,70
2016-05-15T05:44:14.797Z,65
2016-05-15T05:45:14.518Z,60
2016-05-15T05:46:14.443Z,60
2016-05-15T05:47:14.868Z,55
2016-05-15T05:48:14.777Z,60
2016-05-15T05:49:15.138Z,55
2016-05-15T05:50:14.829Z,50
2016-05-15T05:51:14.988Z,45
2016-05-15T05:52:15.084Z,50
2016-05-15T05:53:15.118Z,50
2016-05-15T05:54:14.965Z,55
2016-05-15T05:55:14.998Z,60
2016-05-15T05:56:14.876Z,65
2016-05-15T05:57:15.113Z,65
2016-05-15T05:58:15.303Z,60
2016-05-15T05:59:15.306Z,60
2016-05-15T06:00:15.230Z,60
2016-05-15T06:01:15.359Z,60
2016-05-15T06:02:15.423Z,60
2016-05-15T06:03:15.504Z,60
2016-05-15T06:04:15.820Z,60
2016-05-15T06:05:15.337Z,60
2016-05-15T06:06:15.372Z,65
2016-05-15T06:07:15.672Z,65
2016-05-15T06:08:15.689Z,65
2016-05-15T06:09:15.505Z,65
2016-05-15T06:10:15.554Z,65
2016-05-15T06:11:15.792Z,65
2016-05-15T06:12:15.747Z,70
2016-05-15T06:13:15.656Z,65
2016-05-15T06:14:15.861Z,65
2016-05-15T06:15:15.880Z,70
2016-05-15T06:16:15.883Z,70
2016-05-15T06:17:15.948Z,70
2016-05-15T06:18:16.014Z,75
2016-05-15T06:19:16.860Z,75
2016-05-15T06:20:16.034Z,80
2016-05-15T06:21:16.085Z,80
2016-05-15T06:22:16.305Z,85
2016-05-15T06:23:16.135Z,85
2016-05-15T06:24:15.873Z,85
2016-05-15T06:25:16.235Z,85
2016-05-15T06:26:16.098Z,85
2016-05-15T06:27:16.131Z,90
2016-05-15T06:28:16.009Z,95
2016-05-15T06:29:16.356Z,90
2016-05-15T06:30:16.264Z,95
2016-05-15T06:31:16.267Z,95
2016-05-15T06:32:16.285Z,95
2016-05-15T06:33:16.538Z,90
2016-05-15T06:34:16.431Z,90
2016-05-15T06:35:16.387Z,90
2016-05-15T06:36:16.703Z,85
2016-05-15T06:37:16.705Z,75
2016-05-15T06:38:16.692Z,75
2016-05-15T06:39:16.694Z,70
2016-05-15T06:40:16.792Z,65
2016-05-15T06:41:16.622Z,65
2016-05-15T06:42:16.686Z,65
2016-05-15T06:43:16.862Z,65
2016-05-15T06:44:16.771Z,65
2016-05-15T06:45:16.789Z,65
2016-05-15T06:46:16.822Z,70
2016-05-15T06:47:16.998Z,75
2016-05-15T06:48:17.110Z,80
2016-05-15T06:49:16.971Z,80
2016-05-15T06:50:17.100Z,80
2016-05-15T06:51:16.993Z,85
2016-05-15T06:52:17.213Z,90
2016-05-15T06:53:17.232Z,95
2016-05-15T06:54:16.594Z,100
2016-05-15T06:55:17.285Z,105
2016-05-15T06:56:17.334Z,115
2016-05-15T06:57:17.040Z,110
2016-05-15T06:58:17.309Z,105
2016-05-15T06:59:17.467Z,105
2016-05-15T07:00:17.470Z,105
2016-05-15T07:01:17.488Z,100
2016-05-15T07:02:17.570Z,100
2016-05-15T07:03:17.556Z,110
2016-05-15T07:04:17.621Z,100
2016-05-15T07:05:17.640Z,100
2016-05-15T07:06:17.705Z,100
2016-05-15T07:07:17.597Z,115
2016-05-15T07:08:17.742Z,115
2016-05-15T07:09:17.650Z,115
2016-05-15T07:10:17.669Z,120
2016-05-15T07:11:17.702Z,120
2016-05-15T07:12:17.581Z,125
2016-05-15T07:13:17.474Z,120
2016-05-15T07:14:17.976Z,120
2016-05-15T07:15:17.980Z,120
2016-05-15T07:16:17.716Z,120
2016-05-15T07:17:18.063Z,125
2016-05-15T07:18:17.956Z,130
2016-05-15T07:19:18.958Z,135
2016-05-15T07:20:18.180Z,145
2016-05-15T07:21:18.276Z,125
2016-05-15T07:22:18.248Z,125
2016-05-15T07:23:18.266Z,120
2016-05-15T07:24:18.363Z,130
2016-05-15T07:25:18.334Z,125
2016-05-15T07:26:18.384Z,150
2016-05-15T07:27:18.449Z,170
2016-05-15T07:28:18.139Z,190
2016-05-15T07:29:18.485Z,195
2016-05-15T07:30:18.504Z,205
2016-05-15T07:31:18.554Z,210
2016-05-15T07:32:18.431Z,205
2016-05-15T07:33:18.481Z,215
2016-05-15T07:34:18.390Z,225
2016-05-15T07:35:18.736Z,185
2016-05-15T07:36:18.753Z,215
2016-05-15T07:37:18.773Z,230
2016-05-15T07:38:18.806Z,220
2016-05-15T07:39:18.720Z,215
2016-05-15T07:40:18.797Z,180
2016-05-15T07:41:19.016Z,185
2016-05-15T07:42:18.952Z,165
2016-05-15T07:43:19.060Z,185
2016-05-15T07:44:19.282Z,185
2016-05-15T07:45:19.143Z,200
2016-05-15T07:46:19.412Z,195
2016-05-15T07:47:19.274Z,195
2016-05-15T07:48:19.464Z,175
2016-05-15T07:49:19.634Z,190
2016-05-15T07:50:19.611Z,185
2016-05-15T07:51:19.510Z,185
2016-05-15T07:52:19.611Z,175
2016-05-15T07:53:29.870Z,170
2016-05-15T07:54:19.611Z,165
2016-05-15T07:55:19.865Z,155
2016-05-15T07:56:19.776Z,135
2016-05-15T07:57:19.686Z,140
2016-05-15T07:58:19.894Z,145
2016-05-15T07:59:19.898Z,125
2016-05-15T08:00:20.012Z,115
2016-05-15T08:01:19.999Z,115
2016-05-15T08:02:19.893Z,110
2016-05-15T08:03:20.053Z,120
2016-05-15T08:04:20.368Z,115
2016-05-15T08:05:20.153Z,110
2016-05-15T08:06:20.156Z,115
2016-05-15T08:07:20.207Z,115
2016-05-15T08:08:20.178Z,115
2016-05-15T08:09:20.258Z,125
2016-05-15T08:10:20.309Z,115
2016-05-15T08:11:20.421Z,115
2016-05-15T08:12:20.438Z,120
2016-05-15T08:13:20.410Z,115
2016-05-15T08:14:20.288Z,115
2016-05-15T08:15:20.354Z,95
2016-05-15T08:16:20.543Z,95
2016-05-15T08:17:20.421Z,105
2016-05-15T08:18:20.674Z,125
2016-05-15T08:19:20.520Z,100
2016-05-15T08:20:20.663Z,105
2016-05-15T08:21:20.682Z,110
2016-05-15T08:22:20.810Z,120
2016-05-15T08:23:20.640Z,115
2016-05-15T08:24:20.815Z,125
2016-05-15T08:25:20.818Z,120
2016-05-15T08:26:20.898Z,120
2016-05-15T08:27:20.917Z,125
2016-05-15T08:28:20.981Z,125
2016-05-15T08:29:20.892Z,140
2016-05-15T08:30:20.909Z,140
2016-05-15T08:31:21.083Z,150
2016-05-15T08:32:21.086Z,160
2016-05-15T08:33:21.167Z,165
2016-05-15T08:34:21.701Z,175
2016-05-15T08:35:21.063Z,160
2016-05-15T08:36:21.254Z,145
2016-05-15T08:37:21.334Z,160
2016-05-15T08:38:21.383Z,180
2016-05-15T08:39:21.184Z,230
2016-05-15T08:40:21.374Z,260
2016-05-15T08:41:21.454Z,270
2016-05-15T08:42:21.472Z,230
2016-05-15T08:43:21.491Z,235
2016-05-15T08:44:21.541Z,255
2016-05-15T08:45:21.449Z,285
2016-05-15T08:46:21.608Z,275
2016-05-15T08:47:21.658Z,300
2016-05-15T08:48:21.738Z,235
2016-05-15T08:49:22.913Z,340
2016-05-15T08:50:21.713Z,350
2016-05-15T08:51:21.810Z,365
2016-05-15T08:52:21.828Z,355
2016-05-15T08:53:21.846Z,325
2016-05-15T08:54:21.754Z,330
2016-05-15T08:55:21.976Z,335
2016-05-15T08:56:22.010Z,335
2016-05-15T08:57:22.013Z,345
2016-05-15T08:58:22.031Z,345
2016-05-15T08:59:22.112Z,310
2016-05-15T09:00:21.959Z,345
2016-05-15T09:01:22.148Z,370
2016-05-15T09:02:22.214Z,355
2016-05-15T09:03:22.233Z,345
2016-05-15T09:04:22.797Z,325
2016-05-15T09:05:22.192Z,360
2016-05-15T09:06:22.428Z,365
2016-05-15T09:07:22.258Z,380
2016-05-15T09:08:22.292Z,400
2016-05-15T09:09:22.451Z,380
2016-05-15T09:10:22.501Z,335
2016-05-15T09:11:22.536Z,290
2016-05-15T09:12:22.569Z,275
2016-05-15T09:13:22.602Z,265
2016-05-15T09:14:22.528Z,250
2016-05-15T09:15:22.530Z,245
2016-05-15T09:16:22.704Z,240
2016-05-15T09:17:22.738Z,240
2016-05-15T09:18:22.836Z,230
2016-05-15T09:19:22.932Z,230
2016-05-15T09:20:22.871Z,230
2016-05-15T09:21:22.749Z,215
2016-05-15T09:22:22.751Z,210
2016-05-15T09:23:22.849Z,215
2016-05-15T09:24:22.867Z,225
2016-05-15T09:25:23.073Z,250
2016-05-15T09:26:23.107Z,255
2016-05-15T09:27:22.968Z,255
2016-05-15T09:28:22.846Z,240
2016-05-15T09:29:23.099Z,210
2016-05-15T09:30:23.086Z,220
2016-05-15T09:31:23.120Z,220
2016-05-15T09:32:23.186Z,185
2016-05-15T09:33:23.094Z,140
2016-05-15T09:34:23.441Z,125
2016-05-15T09:35:24.209Z,120
2016-05-15T09:36:23.508Z,140
2016-05-15T09:37:23.370Z,200
2016-05-15T09:38:23.373Z,190
2016-05-15T09:39:23.439Z,240
2016-05-15T09:40:23.660Z,290
2016-05-15T09:41:23.475Z,325
2016-05-15T09:42:23.369Z,410
2016-05-15T09:43:23.621Z,415
2016-05-15T09:44:23.796Z,395
2016-05-15T09:45:23.626Z,360
2016-05-15T09:46:23.692Z,335
2016-05-15T09:47:23.944Z,305
2016-05-15T09:48:23.916Z,285
2016-05-15T09:49:23.887Z,260
2016-05-15T09:50:24.218Z,215
2016-05-15T09:51:24.080Z,210
2016-05-15T09:52:24.052Z,200
2016-05-15T09:53:23.929Z,145
2016-05-15T09:54:24.026Z,190
2016-05-15T09:55:24.215Z,205
2016-05-15T09:56:24.203Z,235
2016-05-15T09:57:24.268Z,310
2016-05-15T09:58:24.098Z,375
2016-05-15T09:59:24.321Z,445
2016-05-15T10:00:24.354Z,525
2016-05-15T10:01:24.420Z,565
2016-05-15T10:02:24.281Z,600
2016-05-15T10:03:24.456Z,630
2016-05-15T10:04:24.506Z,645
2016-05-15T10:05:24.383Z,635
2016-05-15T10:06:24.589Z,605
2016-05-15T10:07:24.623Z,545
2016-05-15T10:08:24.345Z,450
2016-05-15T10:09:24.753Z,480
2016-05-15T10:10:24.740Z,560
2016-05-15T10:11:24.774Z,500
2016-05-15T10:12:24.622Z,485
2016-05-15T10:13:24.858Z,500
2016-05-15T10:14:24.876Z,595
2016-05-15T10:15:24.927Z,605
2016-05-15T10:16:24.991Z,550
2016-05-15T10:17:25.041Z,540
2016-05-15T10:18:24.902Z,585
2016-05-15T10:19:25.094Z,585
2016-05-15T10:20:24.971Z,605
2016-05-15T10:21:25.161Z,640
2016-05-15T10:22:25.007Z,585
2016-05-15T10:23:25.228Z,460
2016-05-15T10:24:25.247Z,400
2016-05-15T10:25:25.312Z,345
2016-05-15T10:26:25.190Z,310
2016-05-15T10:27:24.895Z,300
2016-05-15T10:28:25.445Z,300
2016-05-15T10:29:25.448Z,290
2016-05-15T10:30:25.498Z,285
2016-05-15T10:31:26.031Z,300
2016-05-15T10:32:25.612Z,320
2016-05-15T10:33:25.443Z,335
2016-05-15T10:34:25.915Z,350
2016-05-15T10:35:25.855Z,385
2016-05-15T10:36:25.747Z,420
2016-05-15T10:37:25.736Z,450
2016-05-15T10:38:25.660Z,475
2016-05-15T10:39:25.912Z,440
2016-05-15T10:40:25.414Z,430
2016-05-15T10:41:25.903Z,470
2016-05-15T10:42:25.655Z,575
2016-05-15T10:43:26.033Z,660
2016-05-15T10:44:25.863Z,730
2016-05-15T10:45:26.053Z,960
2016-05-15T10:46:26.119Z,1095
2016-05-15T10:47:26.138Z,715
2016-05-15T10:48:26.030Z,765
2016-05-15T10:49:25.924Z,915
2016-05-15T10:50:26.270Z,915
2016-05-15T10:51:26.305Z,790
2016-05-15T10:52:26.338Z,990
2016-05-15T10:53:26.262Z,1075
2016-05-15T10:54:26.437Z,2165
2016-05-15T10:55:26.470Z,1280
2016-05-15T10:56:26.490Z,1350
2016-05-15T10:57:26.617Z,1535
2016-05-15T10:58:26.588Z,2125
2016-05-15T10:59:26.481Z,2190
2016-05-15T11:00:26.516Z,1255
2016-05-15T11:01:26.721Z,1160
2016-05-15T11:02:26.740Z,920
2016-05-15T11:03:26.476Z,1035
2016-05-15T11:04:26.902Z,2960
2016-05-15T11:05:27.138Z,3515
2016-05-15T11:06:26.767Z,3675
2016-05-15T11:07:27.003Z,4110
2016-05-15T11:08:27.022Z,4325
2016-05-15T11:09:27.039Z,3450
2016-05-15T11:10:27.106Z,4235
2016-05-15T11:11:27.202Z,4035
2016-05-15T11:12:27.095Z,3930
2016-05-15T11:13:27.253Z,3965
2016-05-15T11:14:27.288Z,3720
2016-05-15T11:15:27.399Z,2385
2016-05-15T11:16:27.387Z,810
2016-05-15T11:17:27.280Z,590
2016-05-15T11:18:27.471Z,715
2016-05-15T11:19:27.582Z,750
2016-05-15T11:20:27.585Z,515
2016-05-15T11:21:27.307Z,810
2016-05-15T11:22:27.387Z,2900
2016-05-15T11:23:27.718Z,4075
2016-05-15T11:24:27.612Z,4130
2016-05-15T11:25:27.692Z,4205
2016-05-15T11:26:27.882Z,4275
2016-05-15T11:27:37.151Z,1085
2016-05-15T11:28:27.950Z,2480
2016-05-15T11:29:28.031Z,2805
2016-05-15T11:30:27.924Z,805
2016-05-15T11:31:28.084Z,1170
2016-05-15T11:32:28.242Z,980
2016-05-15T11:33:28.198Z,4740
2016-05-15T11:34:28.404Z,4385
2016-05-15T11:35:29.282Z,635
2016-05-15T11:36:28.175Z,710
2016-05-15T11:37:28.100Z,3500
2016-05-15T11:38:28.414Z,1215
2016-05-15T11:39:28.495Z,575
2016-05-15T11:40:28.576Z,985
2016-05-15T11:41:28.564Z,4575
2016-05-15T11:42:28.691Z,4500
2016-05-15T11:43:28.631Z,2685
2016-05-15T11:44:28.618Z,3910
2016-05-15T11:45:28.747Z,690
2016-05-15T11:46:28.842Z,510
2016-05-15T11:47:28.924Z,475
2016-05-15T11:48:28.910Z,690
2016-05-15T11:49:29.038Z,565
2016-05-15T11:50:28.899Z,560
2016-05-15T11:51:29.060Z,370
2016-05-15T11:52:29.077Z,390
2016-05-15T11:53:29.033Z,360
2016-05-15T11:54:29.770Z,370
2016-05-15T11:55:29.210Z,365
2016-05-15T11:56:29.322Z,300
2016-05-15T11:57:29.185Z,320
2016-05-15T11:58:29.266Z,375
2016-05-15T11:59:29.393Z,415
2016-05-15T12:00:29.458Z,450
2016-05-15T12:01:29.164Z,530
2016-05-15T12:02:29.510Z,4155
2016-05-15T12:03:29.560Z,4180
2016-05-15T12:04:29.595Z,4235
2016-05-15T12:05:29.659Z,4295
2016-05-15T12:06:29.709Z,4295
2016-05-15T12:07:29.789Z,4265
2016-05-15T12:08:29.651Z,2420
2016-05-15T12:09:29.858Z,4060
2016-05-15T12:10:29.751Z,570
2016-05-15T12:11:30.003Z,520
2016-05-15T12:12:29.991Z,555
2016-05-15T12:13:30.056Z,1190
2016-05-15T12:14:29.778Z,525
2016-05-15T12:15:30.202Z,505
2016-05-15T12:16:30.158Z,510
2016-05-15T12:17:30.222Z,470
2016-05-15T12:18:30.116Z,430
2016-05-15T12:19:30.243Z,390
2016-05-15T12:20:30.168Z,395
2016-05-15T12:21:30.437Z,460
2016-05-15T12:22:30.314Z,530
2016-05-15T12:23:30.333Z,600
2016-05-15T12:24:30.569Z,800
2016-05-15T12:25:30.619Z,750
2016-05-15T12:26:30.653Z,575
2016-05-15T12:27:30.672Z,445
2016-05-15T12:28:30.768Z,355
2016-05-15T12:29:30.818Z,295
2016-05-15T12:30:30.648Z,245
2016-05-15T12:31:30.838Z,220
2016-05-15T12:32:30.904Z,220
2016-05-15T12:33:30.969Z,225
2016-05-15T12:34:31.753Z,230
2016-05-15T12:35:31.053Z,250
2016-05-15T12:36:31.055Z,285
2016-05-15T12:37:31.089Z,310
2016-05-15T12:38:31.154Z,305
2016-05-15T12:39:31.032Z,365
2016-05-15T12:40:31.254Z,530
2016-05-15T12:41:31.100Z,1670
2016-05-15T12:42:31.134Z,1465
2016-05-15T12:43:31.199Z,3150
2016-05-15T12:44:31.061Z,1620
2016-05-15T12:45:31.438Z,660
2016-05-15T12:46:31.473Z,530
2016-05-15T12:47:31.366Z,450
2016-05-15T12:48:31.572Z,370
2016-05-15T12:49:32.341Z,345
2016-05-15T12:50:31.483Z,295
2016-05-15T12:51:31.533Z,245
2016-05-15T12:52:31.707Z,210
2016-05-15T12:53:31.632Z,195
2016-05-15T12:54:31.666Z,185
2016-05-15T12:55:31.841Z,180
2016-05-15T12:56:31.921Z,185
2016-05-15T12:57:31.940Z,225
2016-05-15T12:58:31.990Z,305
2016-05-15T12:59:31.852Z,400
2016-05-15T13:00:31.760Z,480
2016-05-15T13:01:32.169Z,605
2016-05-15T13:02:31.968Z,770
2016-05-15T13:03:32.174Z,3360
2016-05-15T13:04:32.317Z,3515
2016-05-15T13:05:31.977Z,3340
2016-05-15T13:06:32.307Z,3220
2016-05-15T13:07:32.342Z,3075
2016-05-15T13:08:32.406Z,2970
2016-05-15T13:09:32.284Z,2860
2016-05-15T13:10:32.286Z,2725
2016-05-15T13:11:32.367Z,2660
2016-05-15T13:12:32.559Z,2635
2016-05-15T13:13:32.451Z,2675
2016-05-15T13:14:32.533Z,2695
2016-05-15T13:15:32.566Z,2770
2016-05-15T13:16:32.741Z,2820
2016-05-15T13:17:32.494Z,2765
2016-05-15T13:18:32.684Z,2660
2016-05-15T13:19:32.811Z,2590
2016-05-15T13:20:32.939Z,2540
2016-05-15T13:21:32.879Z,2575
2016-05-15T13:22:33.038Z,2610
2016-05-15T13:23:32.994Z,2690
2016-05-15T13:24:33.168Z,2740
2016-05-15T13:25:33.203Z,2795
2016-05-15T13:26:33.268Z,2860
2016-05-15T13:27:33.285Z,2900
2016-05-15T13:28:33.351Z,2915
2016-05-15T13:29:33.463Z,2845
2016-05-15T13:30:33.450Z,2865
2016-05-15T13:31:33.344Z,2755
2016-05-15T13:32:33.284Z,640
2016-05-15T13:33:33.474Z,660
2016-05-15T13:34:34.007Z,385
2016-05-15T13:35:33.557Z,260
2016-05-15T13:36:33.607Z,200
2016-05-15T13:37:33.640Z,145
2016-05-15T13:38:33.550Z,125
2016-05-15T13:39:33.943Z,130
2016-05-15T13:40:33.978Z,150
2016-05-15T13:41:33.980Z,170
2016-05-15T13:42:34.076Z,200
2016-05-15T13:43:34.172Z,260
2016-05-15T13:44:33.832Z,380
2016-05-15T13:45:34.209Z,485
2016-05-15T13:46:34.103Z,565
2016-05-15T13:47:34.153Z,720
2016-05-15T13:48:34.327Z,1110
2016-05-15T13:49:34.064Z,1010
2016-05-15T13:50:35.175Z,1015
2016-05-15T13:51:34.397Z,1035
2016-05-15T13:52:34.478Z,1015
2016-05-15T13:53:34.590Z,1095
2016-05-15T13:54:34.608Z,1455
2016-05-15T13:55:36.033Z,1840
2016-05-15T13:56:34.488Z,2110
2016-05-15T13:57:34.757Z,2315
2016-05-15T13:58:34.760Z,2205
2016-05-15T13:59:36.404Z,2130
2016-05-15T14:00:34.860Z,1700
2016-05-15T14:01:34.752Z,785
2016-05-15T14:02:34.599Z,755
2016-05-15T14:03:34.648Z,1110